sensor_id;sensor_type;location;lat;lon;timestamp;P1;durP1;ratioP1;P2;durP2;ratioP2
20381;SDS011;10350;51.280;12.400;2023-05-07T00:01:46;7.63;;;6.93;;
20381;SDS011;10350;51.280;12.400;2023-05-07T00:04:12;9.75;;;7.50;;
20381;SDS011;10350;51.280;12.400;2023-05-07T00:06:38;7.93;;;7.13;;
20381;SDS011;10350;51.280;12.400;2023-05-07T00:09:04;7.53;;;6.60;;
20381;SDS011;10350;51.280;12.400;2023-05-07T00:11:30;7.95;;;7.05;;
20381;SDS011;10350;51.280;12.400;2023-05-07T00:13:56;8.60;;;7.75;;
20381;SDS011;10350;51.280;12.400;2023-05-07T00:16:22;8.73;;;6.75;;
20381;SDS011;10350;51.280;12.400;2023-05-07T00:18:48;7.13;;;6.43;;
20381;SDS011;10350;51.280;12.400;2023-05-07T00:21:14;7.18;;;6.47;;
20381;SDS011;10350;51.280;12.400;2023-05-07T00:23:40;8.00;;;6.57;;
20381;SDS011;10350;51.280;12.400;2023-05-07T00:26:06;6.70;;;6.03;;
20381;SDS011;10350;51.280;12.400;2023-05-07T00:28:32;5.95;;;5.35;;
20381;SDS011;10350;51.280;12.400;2023-05-07T00:30:58;6.32;;;5.82;;
20381;SDS011;10350;51.280;12.400;2023-05-07T00:33:24;9.48;;;6.13;;
20381;SDS011;10350;51.280;12.400;2023-05-07T00:35:51;6.87;;;6.20;;
20381;SDS011;10350;51.280;12.400;2023-05-07T00:38:17;7.65;;;6.10;;
20381;SDS011;10350;51.280;12.400;2023-05-07T00:40:43;8.25;;;6.32;;
20381;SDS011;10350;51.280;12.400;2023-05-07T00:43:10;7.50;;;6.05;;
20381;SDS011;10350;51.280;12.400;2023-05-07T00:45:37;6.27;;;5.67;;
20381;SDS011;10350;51.280;12.400;2023-05-07T00:48:03;7.63;;;6.38;;
20381;SDS011;10350;51.280;12.400;2023-05-07T00:50:30;7.68;;;6.88;;
20381;SDS011;10350;51.280;12.400;2023-05-07T00:52:56;7.90;;;6.85;;
20381;SDS011;10350;51.280;12.400;2023-05-07T00:55:22;7.32;;;6.22;;
20381;SDS011;10350;51.280;12.400;2023-05-07T00:57:50;6.45;;;5.85;;
20381;SDS011;10350;51.280;12.400;2023-05-07T01:00:16;7.32;;;6.10;;
20381;SDS011;10350;51.280;12.400;2023-05-07T01:02:43;7.10;;;6.43;;
20381;SDS011;10350;51.280;12.400;2023-05-07T01:05:10;12.25;;;6.13;;
20381;SDS011;10350;51.280;12.400;2023-05-07T01:07:36;7.83;;;6.53;;
20381;SDS011;10350;51.280;12.400;2023-05-07T01:10:04;8.07;;;6.20;;
20381;SDS011;10350;51.280;12.400;2023-05-07T01:12:30;7.05;;;6.35;;
20381;SDS011;10350;51.280;12.400;2023-05-07T01:14:57;7.82;;;6.53;;
20381;SDS011;10350;51.280;12.400;2023-05-07T01:17:23;7.28;;;6.15;;
20381;SDS011;10350;51.280;12.400;2023-05-07T01:19:49;6.47;;;5.88;;
20381;SDS011;10350;51.280;12.400;2023-05-07T01:22:16;6.80;;;6.20;;
20381;SDS011;10350;51.280;12.400;2023-05-07T01:24:44;7.10;;;6.30;;
20381;SDS011;10350;51.280;12.400;2023-05-07T01:27:10;6.80;;;5.88;;
20381;SDS011;10350;51.280;12.400;2023-05-07T01:29:36;12.88;;;6.65;;
20381;SDS011;10350;51.280;12.400;2023-05-07T01:32:02;9.15;;;6.55;;
20381;SDS011;10350;51.280;12.400;2023-05-07T01:34:30;7.53;;;6.80;;
20381;SDS011;10350;51.280;12.400;2023-05-07T01:36:57;6.78;;;5.88;;
20381;SDS011;10350;51.280;12.400;2023-05-07T01:39:24;8.55;;;6.72;;
20381;SDS011;10350;51.280;12.400;2023-05-07T01:41:50;8.23;;;6.63;;
20381;SDS011;10350;51.280;12.400;2023-05-07T01:44:16;10.43;;;7.07;;
20381;SDS011;10350;51.280;12.400;2023-05-07T01:46:43;21.42;;;7.47;;
20381;SDS011;10350;51.280;12.400;2023-05-07T01:49:10;8.70;;;7.03;;
20381;SDS011;10350;51.280;12.400;2023-05-07T01:51:36;7.78;;;6.97;;
20381;SDS011;10350;51.280;12.400;2023-05-07T01:54:02;6.55;;;5.95;;
20381;SDS011;10350;51.280;12.400;2023-05-07T01:56:28;9.52;;;7.18;;
20381;SDS011;10350;51.280;12.400;2023-05-07T01:58:54;7.60;;;6.13;;
20381;SDS011;10350;51.280;12.400;2023-05-07T02:01:20;10.55;;;7.45;;
20381;SDS011;10350;51.280;12.400;2023-05-07T02:03:45;8.25;;;6.65;;
20381;SDS011;10350;51.280;12.400;2023-05-07T02:06:11;14.77;;;7.35;;
20381;SDS011;10350;51.280;12.400;2023-05-07T02:08:37;10.32;;;7.88;;
20381;SDS011;10350;51.280;12.400;2023-05-07T02:11:04;9.15;;;7.28;;
20381;SDS011;10350;51.280;12.400;2023-05-07T02:13:31;10.38;;;8.55;;
20381;SDS011;10350;51.280;12.400;2023-05-07T02:15:57;9.52;;;7.80;;
20381;SDS011;10350;51.280;12.400;2023-05-07T02:18:23;11.02;;;8.23;;
20381;SDS011;10350;51.280;12.400;2023-05-07T02:20:49;9.20;;;8.25;;
20381;SDS011;10350;51.280;12.400;2023-05-07T02:23:15;10.25;;;7.70;;
20381;SDS011;10350;51.280;12.400;2023-05-07T02:25:41;11.57;;;8.73;;
20381;SDS011;10350;51.280;12.400;2023-05-07T02:28:07;13.98;;;8.95;;
20381;SDS011;10350;51.280;12.400;2023-05-07T02:30:33;10.32;;;8.02;;
20381;SDS011;10350;51.280;12.400;2023-05-07T02:32:59;12.30;;;8.40;;
20381;SDS011;10350;51.280;12.400;2023-05-07T02:35:25;10.77;;;8.80;;
20381;SDS011;10350;51.280;12.400;2023-05-07T02:37:51;11.75;;;7.78;;
20381;SDS011;10350;51.280;12.400;2023-05-07T02:40:17;9.88;;;7.07;;
20381;SDS011;10350;51.280;12.400;2023-05-07T02:42:43;9.38;;;6.93;;
20381;SDS011;10350;51.280;12.400;2023-05-07T02:45:09;10.05;;;7.97;;
20381;SDS011;10350;51.280;12.400;2023-05-07T02:47:35;12.55;;;8.15;;
20381;SDS011;10350;51.280;12.400;2023-05-07T02:50:01;11.10;;;7.95;;
20381;SDS011;10350;51.280;12.400;2023-05-07T02:52:27;9.88;;;7.68;;
20381;SDS011;10350;51.280;12.400;2023-05-07T02:54:53;10.32;;;8.13;;
20381;SDS011;10350;51.280;12.400;2023-05-07T02:57:19;12.20;;;8.35;;
20381;SDS011;10350;51.280;12.400;2023-05-07T02:59:44;10.20;;;8.15;;
20381;SDS011;10350;51.280;12.400;2023-05-07T03:02:10;13.43;;;7.50;;
20381;SDS011;10350;51.280;12.400;2023-05-07T03:04:36;11.48;;;7.18;;
20381;SDS011;10350;51.280;12.400;2023-05-07T03:07:02;9.88;;;7.65;;
20381;SDS011;10350;51.280;12.400;2023-05-07T03:09:28;8.38;;;7.47;;
20381;SDS011;10350;51.280;12.400;2023-05-07T03:11:54;8.63;;;7.00;;
20381;SDS011;10350;51.280;12.400;2023-05-07T03:14:20;9.40;;;7.70;;
20381;SDS011;10350;51.280;12.400;2023-05-07T03:16:46;8.57;;;7.03;;
20381;SDS011;10350;51.280;12.400;2023-05-07T03:19:12;8.02;;;7.22;;
20381;SDS011;10350;51.280;12.400;2023-05-07T03:21:38;10.05;;;8.50;;
20381;SDS011;10350;51.280;12.400;2023-05-07T03:24:04;11.23;;;8.10;;
20381;SDS011;10350;51.280;12.400;2023-05-07T03:26:30;10.63;;;8.60;;
20381;SDS011;10350;51.280;12.400;2023-05-07T03:28:56;9.07;;;7.85;;
20381;SDS011;10350;51.280;12.400;2023-05-07T03:31:22;11.85;;;7.97;;
20381;SDS011;10350;51.280;12.400;2023-05-07T03:33:51;10.32;;;7.95;;
20381;SDS011;10350;51.280;12.400;2023-05-07T03:36:18;13.00;;;8.50;;
20381;SDS011;10350;51.280;12.400;2023-05-07T03:38:44;8.98;;;8.07;;
20381;SDS011;10350;51.280;12.400;2023-05-07T03:41:09;11.65;;;8.60;;
20381;SDS011;10350;51.280;12.400;2023-05-07T03:43:35;12.55;;;8.40;;
20381;SDS011;10350;51.280;12.400;2023-05-07T03:46:01;12.07;;;8.77;;
20381;SDS011;10350;51.280;12.400;2023-05-07T03:48:27;12.15;;;9.43;;
20381;SDS011;10350;51.280;12.400;2023-05-07T03:50:53;7.72;;;7.03;;
20381;SDS011;10350;51.280;12.400;2023-05-07T03:53:19;9.98;;;8.60;;
20381;SDS011;10350;51.280;12.400;2023-05-07T03:55:45;9.50;;;7.88;;
20381;SDS011;10350;51.280;12.400;2023-05-07T03:58:11;10.27;;;8.98;;
20381;SDS011;10350;51.280;12.400;2023-05-07T04:00:37;14.98;;;9.18;;
20381;SDS011;10350;51.280;12.400;2023-05-07T04:03:04;11.30;;;7.82;;
20381;SDS011;10350;51.280;12.400;2023-05-07T04:05:30;11.80;;;8.60;;
20381;SDS011;10350;51.280;12.400;2023-05-07T04:07:59;11.73;;;8.70;;
20381;SDS011;10350;51.280;12.400;2023-05-07T04:10:26;9.93;;;8.60;;
20381;SDS011;10350;51.280;12.400;2023-05-07T04:12:53;9.65;;;8.73;;
20381;SDS011;10350;51.280;12.400;2023-05-07T04:15:19;8.70;;;7.80;;
20381;SDS011;10350;51.280;12.400;2023-05-07T04:17:45;11.38;;;9.13;;
20381;SDS011;10350;51.280;12.400;2023-05-07T04:20:15;14.07;;;8.90;;
20381;SDS011;10350;51.280;12.400;2023-05-07T04:22:57;10.02;;;8.05;;
20381;SDS011;10350;51.280;12.400;2023-05-07T04:25:23;9.90;;;8.13;;
20381;SDS011;10350;51.280;12.400;2023-05-07T04:27:51;8.90;;;7.88;;
20381;SDS011;10350;51.280;12.400;2023-05-07T04:30:17;11.90;;;8.32;;
20381;SDS011;10350;51.280;12.400;2023-05-07T04:32:43;10.90;;;8.25;;
20381;SDS011;10350;51.280;12.400;2023-05-07T04:35:09;9.68;;;8.55;;
20381;SDS011;10350;51.280;12.400;2023-05-07T04:37:35;9.02;;;7.82;;
20381;SDS011;10350;51.280;12.400;2023-05-07T04:40:01;8.73;;;7.75;;
20381;SDS011;10350;51.280;12.400;2023-05-07T04:42:27;9.32;;;7.70;;
20381;SDS011;10350;51.280;12.400;2023-05-07T04:44:53;9.07;;;8.10;;
20381;SDS011;10350;51.280;12.400;2023-05-07T04:47:19;9.98;;;7.82;;
20381;SDS011;10350;51.280;12.400;2023-05-07T04:49:46;9.48;;;7.95;;
20381;SDS011;10350;51.280;12.400;2023-05-07T04:52:12;12.25;;;8.10;;
20381;SDS011;10350;51.280;12.400;2023-05-07T04:54:39;8.43;;;7.32;;
20381;SDS011;10350;51.280;12.400;2023-05-07T04:57:05;10.73;;;7.83;;
20381;SDS011;10350;51.280;12.400;2023-05-07T04:59:31;9.30;;;8.40;;
20381;SDS011;10350;51.280;12.400;2023-05-07T05:01:57;9.70;;;7.80;;
20381;SDS011;10350;51.280;12.400;2023-05-07T05:04:23;10.23;;;7.78;;
20381;SDS011;10350;51.280;12.400;2023-05-07T05:06:49;10.52;;;7.75;;
20381;SDS011;10350;51.280;12.400;2023-05-07T05:09:15;10.00;;;7.80;;
20381;SDS011;10350;51.280;12.400;2023-05-07T05:11:41;8.43;;;7.30;;
20381;SDS011;10350;51.280;12.400;2023-05-07T05:14:07;9.85;;;7.50;;
20381;SDS011;10350;51.280;12.400;2023-05-07T05:16:33;12.05;;;8.07;;
20381;SDS011;10350;51.280;12.400;2023-05-07T05:18:59;8.30;;;7.50;;
20381;SDS011;10350;51.280;12.400;2023-05-07T05:21:25;9.48;;;7.65;;
20381;SDS011;10350;51.280;12.400;2023-05-07T05:23:51;10.60;;;7.57;;
20381;SDS011;10350;51.280;12.400;2023-05-07T05:26:17;7.85;;;6.75;;
20381;SDS011;10350;51.280;12.400;2023-05-07T05:28:43;7.18;;;6.47;;
20381;SDS011;10350;51.280;12.400;2023-05-07T05:31:09;14.80;;;7.43;;
20381;SDS011;10350;51.280;12.400;2023-05-07T05:33:35;8.05;;;7.30;;
20381;SDS011;10350;51.280;12.400;2023-05-07T05:36:01;8.10;;;7.38;;
20381;SDS011;10350;51.280;12.400;2023-05-07T05:38:29;10.27;;;6.60;;
20381;SDS011;10350;51.280;12.400;2023-05-07T05:40:55;8.88;;;7.07;;
20381;SDS011;10350;51.280;12.400;2023-05-07T05:43:21;8.27;;;7.45;;
20381;SDS011;10350;51.280;12.400;2023-05-07T05:45:50;7.75;;;6.95;;
20381;SDS011;10350;51.280;12.400;2023-05-07T05:48:16;8.80;;;7.28;;
20381;SDS011;10350;51.280;12.400;2023-05-07T05:50:47;6.95;;;6.07;;
20381;SDS011;10350;51.280;12.400;2023-05-07T05:56:08;7.63;;;7.00;;
20381;SDS011;10350;51.280;12.400;2023-05-07T05:58:41;8.05;;;7.20;;
20381;SDS011;10350;51.280;12.400;2023-05-07T06:01:10;6.88;;;5.90;;
20381;SDS011;10350;51.280;12.400;2023-05-07T06:03:36;8.52;;;7.65;;
20381;SDS011;10350;51.280;12.400;2023-05-07T06:06:02;7.25;;;6.22;;
20381;SDS011;10350;51.280;12.400;2023-05-07T06:08:29;7.97;;;7.18;;
20381;SDS011;10350;51.280;12.400;2023-05-07T06:10:55;5.78;;;5.28;;
20381;SDS011;10350;51.280;12.400;2023-05-07T06:13:22;13.07;;;7.45;;
20381;SDS011;10350;51.280;12.400;2023-05-07T06:15:48;7.20;;;6.45;;
20381;SDS011;10350;51.280;12.400;2023-05-07T06:18:14;7.07;;;6.40;;
20381;SDS011;10350;51.280;12.400;2023-05-07T06:20:40;7.22;;;6.53;;
20381;SDS011;10350;51.280;12.400;2023-05-07T06:23:06;10.52;;;7.65;;
20381;SDS011;10350;51.280;12.400;2023-05-07T06:25:32;7.18;;;5.95;;
20381;SDS011;10350;51.280;12.400;2023-05-07T06:27:58;7.07;;;6.38;;
20381;SDS011;10350;51.280;12.400;2023-05-07T06:30:24;7.22;;;6.53;;
20381;SDS011;10350;51.280;12.400;2023-05-07T06:32:51;8.55;;;7.22;;
20381;SDS011;10350;51.280;12.400;2023-05-07T06:35:17;7.15;;;6.45;;
20381;SDS011;10350;51.280;12.400;2023-05-07T06:37:44;7.22;;;6.55;;
20381;SDS011;10350;51.280;12.400;2023-05-07T06:40:10;10.18;;;7.18;;
20381;SDS011;10350;51.280;12.400;2023-05-07T06:42:36;7.97;;;7.28;;
20381;SDS011;10350;51.280;12.400;2023-05-07T06:45:02;7.90;;;6.75;;
20381;SDS011;10350;51.280;12.400;2023-05-07T06:47:28;9.38;;;7.93;;
20381;SDS011;10350;51.280;12.400;2023-05-07T06:49:54;8.45;;;7.65;;
20381;SDS011;10350;51.280;12.400;2023-05-07T06:52:20;8.70;;;7.78;;
20381;SDS011;10350;51.280;12.400;2023-05-07T06:54:46;8.50;;;7.35;;
20381;SDS011;10350;51.280;12.400;2023-05-07T06:57:12;8.18;;;7.38;;
20381;SDS011;10350;51.280;12.400;2023-05-07T06:59:38;9.90;;;8.85;;
20381;SDS011;10350;51.280;12.400;2023-05-07T07:02:04;10.20;;;8.27;;
20381;SDS011;10350;51.280;12.400;2023-05-07T07:04:30;9.27;;;8.38;;
20381;SDS011;10350;51.280;12.400;2023-05-07T07:06:56;8.85;;;8.05;;
20381;SDS011;10350;51.280;12.400;2023-05-07T07:09:22;12.35;;;8.13;;
20381;SDS011;10350;51.280;12.400;2023-05-07T07:11:48;8.43;;;7.72;;
20381;SDS011;10350;51.280;12.400;2023-05-07T07:14:14;8.93;;;8.02;;
20381;SDS011;10350;51.280;12.400;2023-05-07T07:16:40;8.85;;;8.10;;
20381;SDS011;10350;51.280;12.400;2023-05-07T07:19:06;8.77;;;7.95;;
20381;SDS011;10350;51.280;12.400;2023-05-07T07:21:32;9.25;;;8.30;;
20381;SDS011;10350;51.280;12.400;2023-05-07T07:23:58;8.00;;;7.40;;
20381;SDS011;10350;51.280;12.400;2023-05-07T07:26:24;7.85;;;7.05;;
20381;SDS011;10350;51.280;12.400;2023-05-07T07:28:50;8.15;;;7.35;;
20381;SDS011;10350;51.280;12.400;2023-05-07T07:31:16;7.95;;;7.25;;
20381;SDS011;10350;51.280;12.400;2023-05-07T07:33:41;7.65;;;7.05;;
20381;SDS011;10350;51.280;12.400;2023-05-07T07:36:07;8.68;;;7.88;;
20381;SDS011;10350;51.280;12.400;2023-05-07T07:38:34;9.15;;;8.25;;
20381;SDS011;10350;51.280;12.400;2023-05-07T07:41:00;8.73;;;7.97;;
20381;SDS011;10350;51.280;12.400;2023-05-07T07:43:26;9.05;;;8.15;;
20381;SDS011;10350;51.280;12.400;2023-05-07T07:45:52;8.75;;;7.95;;
20381;SDS011;10350;51.280;12.400;2023-05-07T07:48:18;9.60;;;8.80;;
20381;SDS011;10350;51.280;12.400;2023-05-07T07:50:44;8.82;;;8.02;;
20381;SDS011;10350;51.280;12.400;2023-05-07T07:53:10;8.05;;;7.28;;
20381;SDS011;10350;51.280;12.400;2023-05-07T07:55:39;8.55;;;7.75;;
20381;SDS011;10350;51.280;12.400;2023-05-07T07:58:05;8.90;;;8.05;;
20381;SDS011;10350;51.280;12.400;2023-05-07T08:00:31;8.73;;;7.90;;
20381;SDS011;10350;51.280;12.400;2023-05-07T08:02:57;8.57;;;7.18;;
20381;SDS011;10350;51.280;12.400;2023-05-07T08:05:23;9.57;;;8.57;;
20381;SDS011;10350;51.280;12.400;2023-05-07T08:07:49;8.73;;;7.85;;
20381;SDS011;10350;51.280;12.400;2023-05-07T08:10:21;8.95;;;8.15;;
20381;SDS011;10350;51.280;12.400;2023-05-07T08:12:47;8.35;;;7.55;;
20381;SDS011;10350;51.280;12.400;2023-05-07T08:15:19;8.07;;;7.38;;
20381;SDS011;10350;51.280;12.400;2023-05-07T08:23:57;7.88;;;7.07;;
20381;SDS011;10350;51.280;12.400;2023-05-07T08:27:06;7.22;;;6.72;;
20381;SDS011;10350;51.280;12.400;2023-05-07T08:29:39;7.32;;;6.72;;
20381;SDS011;10350;51.280;12.400;2023-05-07T08:35:28;7.43;;;6.82;;
20381;SDS011;10350;51.280;12.400;2023-05-07T08:37:55;7.10;;;6.45;;
20381;SDS011;10350;51.280;12.400;2023-05-07T08:40:22;7.22;;;6.63;;
20381;SDS011;10350;51.280;12.400;2023-05-07T08:42:51;6.40;;;5.90;;
20381;SDS011;10350;51.280;12.400;2023-05-07T08:45:17;8.27;;;7.47;;
20381;SDS011;10350;51.280;12.400;2023-05-07T08:47:46;6.53;;;5.93;;
20381;SDS011;10350;51.280;12.400;2023-05-07T08:50:12;6.95;;;6.35;;
20381;SDS011;10350;51.280;12.400;2023-05-07T08:52:39;6.93;;;6.28;;
20381;SDS011;10350;51.280;12.400;2023-05-07T08:55:05;7.07;;;6.22;;
20381;SDS011;10350;51.280;12.400;2023-05-07T08:57:32;6.07;;;5.57;;
20381;SDS011;10350;51.280;12.400;2023-05-07T08:59:58;9.52;;;6.43;;
20381;SDS011;10350;51.280;12.400;2023-05-07T09:02:25;7.73;;;6.40;;
20381;SDS011;10350;51.280;12.400;2023-05-07T09:04:51;6.97;;;6.38;;
20381;SDS011;10350;51.280;12.400;2023-05-07T09:07:18;6.82;;;6.13;;
20381;SDS011;10350;51.280;12.400;2023-05-07T09:09:44;6.68;;;6.07;;
20381;SDS011;10350;51.280;12.400;2023-05-07T09:12:10;7.13;;;6.50;;
20381;SDS011;10350;51.280;12.400;2023-05-07T09:14:36;6.50;;;5.97;;
20381;SDS011;10350;51.280;12.400;2023-05-07T09:17:02;6.75;;;6.25;;
20381;SDS011;10350;51.280;12.400;2023-05-07T09:19:28;7.10;;;6.60;;
20381;SDS011;10350;51.280;12.400;2023-05-07T09:21:57;6.50;;;5.90;;
20381;SDS011;10350;51.280;12.400;2023-05-07T09:24:24;6.70;;;6.20;;
20381;SDS011;10350;51.280;12.400;2023-05-07T09:26:50;7.80;;;7.03;;
20381;SDS011;10350;51.280;12.400;2023-05-07T09:29:16;7.45;;;6.80;;
20381;SDS011;10350;51.280;12.400;2023-05-07T09:31:42;6.95;;;6.45;;
20381;SDS011;10350;51.280;12.400;2023-05-07T09:34:08;7.47;;;6.78;;
20381;SDS011;10350;51.280;12.400;2023-05-07T09:36:34;7.93;;;6.18;;
20381;SDS011;10350;51.280;12.400;2023-05-07T09:39:00;7.35;;;6.65;;
20381;SDS011;10350;51.280;12.400;2023-05-07T09:41:28;6.75;;;6.25;;
20381;SDS011;10350;51.280;12.400;2023-05-07T09:43:56;7.68;;;6.07;;
20381;SDS011;10350;51.280;12.400;2023-05-07T09:46:32;8.48;;;6.75;;
20381;SDS011;10350;51.280;12.400;2023-05-07T09:48:59;5.57;;;5.13;;
20381;SDS011;10350;51.280;12.400;2023-05-07T09:51:34;6.75;;;6.25;;
20381;SDS011;10350;51.280;12.400;2023-05-07T09:54:22;6.18;;;5.68;;
20381;SDS011;10350;51.280;12.400;2023-05-07T09:56:48;6.32;;;5.82;;
20381;SDS011;10350;51.280;12.400;2023-05-07T10:02:03;5.95;;;5.55;;
20381;SDS011;10350;51.280;12.400;2023-05-07T10:04:31;6.47;;;5.90;;
20381;SDS011;10350;51.280;12.400;2023-05-07T10:06:58;7.18;;;6.57;;
20381;SDS011;10350;51.280;12.400;2023-05-07T10:09:25;5.80;;;5.25;;
20381;SDS011;10350;51.280;12.400;2023-05-07T10:11:52;6.05;;;5.63;;
20381;SDS011;10350;51.280;12.400;2023-05-07T10:14:19;6.15;;;5.70;;
20381;SDS011;10350;51.280;12.400;2023-05-07T10:16:46;6.05;;;5.55;;
20381;SDS011;10350;51.280;12.400;2023-05-07T10:19:13;6.05;;;5.55;;
20381;SDS011;10350;51.280;12.400;2023-05-07T10:21:43;6.47;;;5.97;;
20381;SDS011;10350;51.280;12.400;2023-05-07T10:24:22;5.78;;;5.32;;
20381;SDS011;10350;51.280;12.400;2023-05-07T10:26:51;5.75;;;5.28;;
20381;SDS011;10350;51.280;12.400;2023-05-07T10:29:24;6.40;;;5.90;;
20381;SDS011;10350;51.280;12.400;2023-05-07T10:31:56;6.03;;;5.57;;
20381;SDS011;10350;51.280;12.400;2023-05-07T10:34:26;5.93;;;5.43;;
20381;SDS011;10350;51.280;12.400;2023-05-07T10:36:53;5.28;;;4.95;;
20381;SDS011;10350;51.280;12.400;2023-05-07T10:39:20;6.88;;;6.38;;
20381;SDS011;10350;51.280;12.400;2023-05-07T10:41:47;5.68;;;5.28;;
20381;SDS011;10350;51.280;12.400;2023-05-07T10:44:26;5.80;;;5.50;;
20381;SDS011;10350;51.280;12.400;2023-05-07T10:47:25;6.35;;;5.85;;
20381;SDS011;10350;51.280;12.400;2023-05-07T10:52:18;6.47;;;5.97;;
20381;SDS011;10350;51.280;12.400;2023-05-07T10:54:45;5.60;;;5.20;;
20381;SDS011;10350;51.280;12.400;2023-05-07T11:05:26;5.70;;;5.30;;
20381;SDS011;10350;51.280;12.400;2023-05-07T11:07:56;6.15;;;5.75;;
20381;SDS011;10350;51.280;12.400;2023-05-07T11:10:22;6.60;;;6.10;;
20381;SDS011;10350;51.280;12.400;2023-05-07T11:12:48;6.28;;;5.88;;
20381;SDS011;10350;51.280;12.400;2023-05-07T11:15:14;7.07;;;6.47;;
20381;SDS011;10350;51.280;12.400;2023-05-07T11:17:53;6.65;;;6.18;;
20381;SDS011;10350;51.280;12.400;2023-05-07T11:20:20;6.53;;;6.10;;
20381;SDS011;10350;51.280;12.400;2023-05-07T11:22:46;5.90;;;5.40;;
20381;SDS011;10350;51.280;12.400;2023-05-07T11:25:17;7.03;;;6.57;;
20381;SDS011;10350;51.280;12.400;2023-05-07T11:27:46;6.32;;;5.70;;
20381;SDS011;10350;51.280;12.400;2023-05-07T11:30:18;6.70;;;6.18;;
20381;SDS011;10350;51.280;12.400;2023-05-07T11:32:46;6.07;;;5.68;;
20381;SDS011;10350;51.280;12.400;2023-05-07T11:35:12;6.45;;;5.95;;
20381;SDS011;10350;51.280;12.400;2023-05-07T11:37:39;6.68;;;6.15;;
20381;SDS011;10350;51.280;12.400;2023-05-07T11:40:08;6.32;;;5.82;;
20381;SDS011;10350;51.280;12.400;2023-05-07T11:42:39;5.75;;;5.40;;
20381;SDS011;10350;51.280;12.400;2023-05-07T11:45:07;6.20;;;5.80;;
20381;SDS011;10350;51.280;12.400;2023-05-07T11:47:34;6.10;;;5.70;;
20381;SDS011;10350;51.280;12.400;2023-05-07T11:50:04;6.43;;;5.93;;
20381;SDS011;10350;51.280;12.400;2023-05-07T11:52:32;7.35;;;6.50;;
20381;SDS011;10350;51.280;12.400;2023-05-07T11:55:02;6.82;;;6.32;;
20381;SDS011;10350;51.280;12.400;2023-05-07T11:57:29;7.13;;;6.63;;
20381;SDS011;10350;51.280;12.400;2023-05-07T11:59:55;7.07;;;6.47;;
20381;SDS011;10350;51.280;12.400;2023-05-07T12:02:22;6.63;;;6.20;;
20381;SDS011;10350;51.280;12.400;2023-05-07T12:04:49;7.90;;;6.82;;
20381;SDS011;10350;51.280;12.400;2023-05-07T12:07:16;6.68;;;6.18;;
20381;SDS011;10350;51.280;12.400;2023-05-07T12:09:43;7.72;;;7.15;;
20381;SDS011;10350;51.280;12.400;2023-05-07T12:12:09;6.50;;;6.03;;
20381;SDS011;10350;51.280;12.400;2023-05-07T12:14:44;7.25;;;6.55;;
20381;SDS011;10350;51.280;12.400;2023-05-07T12:17:11;6.68;;;6.18;;
20381;SDS011;10350;51.280;12.400;2023-05-07T12:19:38;7.75;;;7.15;;
20381;SDS011;10350;51.280;12.400;2023-05-07T12:22:04;6.53;;;6.03;;
20381;SDS011;10350;51.280;12.400;2023-05-07T12:27:12;6.60;;;6.20;;
20381;SDS011;10350;51.280;12.400;2023-05-07T12:29:45;6.45;;;5.95;;
20381;SDS011;10350;51.280;12.400;2023-05-07T12:32:21;6.68;;;6.13;;
20381;SDS011;10350;51.280;12.400;2023-05-07T12:34:51;8.02;;;6.20;;
20381;SDS011;10350;51.280;12.400;2023-05-07T12:40:22;7.10;;;6.50;;
20381;SDS011;10350;51.280;12.400;2023-05-07T12:42:49;7.68;;;7.10;;
20381;SDS011;10350;51.280;12.400;2023-05-07T12:45:38;6.75;;;6.15;;
20381;SDS011;10350;51.280;12.400;2023-05-07T12:48:06;6.80;;;6.30;;
20381;SDS011;10350;51.280;12.400;2023-05-07T12:50:36;7.22;;;6.72;;
20381;SDS011;10350;51.280;12.400;2023-05-07T12:53:05;6.47;;;6.05;;
20381;SDS011;10350;51.280;12.400;2023-05-07T12:55:32;8.05;;;7.38;;
20381;SDS011;10350;51.280;12.400;2023-05-07T12:58:05;8.38;;;7.75;;
20381;SDS011;10350;51.280;12.400;2023-05-07T13:00:35;8.68;;;7.97;;
20381;SDS011;10350;51.280;12.400;2023-05-07T13:03:01;7.95;;;7.40;;
20381;SDS011;10350;51.280;12.400;2023-05-07T13:05:27;8.90;;;8.27;;
20381;SDS011;10350;51.280;12.400;2023-05-07T13:07:54;8.00;;;7.40;;
20381;SDS011;10350;51.280;12.400;2023-05-07T13:10:21;7.70;;;7.07;;
20381;SDS011;10350;51.280;12.400;2023-05-07T13:12:47;7.55;;;6.97;;
20381;SDS011;10350;51.280;12.400;2023-05-07T13:15:16;7.72;;;7.07;;
20381;SDS011;10350;51.280;12.400;2023-05-07T13:17:42;8.15;;;7.45;;
20381;SDS011;10350;51.280;12.400;2023-05-07T13:20:08;7.45;;;6.85;;
20381;SDS011;10350;51.280;12.400;2023-05-07T13:22:35;7.13;;;6.57;;
20381;SDS011;10350;51.280;12.400;2023-05-07T13:25:09;7.53;;;7.03;;
20381;SDS011;10350;51.280;12.400;2023-05-07T13:27:35;7.78;;;7.07;;
20381;SDS011;10350;51.280;12.400;2023-05-07T13:30:02;7.97;;;7.38;;
20381;SDS011;10350;51.280;12.400;2023-05-07T13:32:28;8.70;;;8.10;;
20381;SDS011;10350;51.280;12.400;2023-05-07T13:34:53;9.50;;;8.68;;
20381;SDS011;10350;51.280;12.400;2023-05-07T13:37:19;8.80;;;8.18;;
20381;SDS011;10350;51.280;12.400;2023-05-07T13:39:46;8.48;;;7.88;;
20381;SDS011;10350;51.280;12.400;2023-05-07T13:42:11;8.57;;;7.90;;
20381;SDS011;10350;51.280;12.400;2023-05-07T13:44:37;7.97;;;7.40;;
20381;SDS011;10350;51.280;12.400;2023-05-07T13:47:03;9.05;;;8.35;;
20381;SDS011;10350;51.280;12.400;2023-05-07T13:49:31;7.83;;;7.33;;
20381;SDS011;10350;51.280;12.400;2023-05-07T13:51:57;8.02;;;7.43;;
20381;SDS011;10350;51.280;12.400;2023-05-07T13:54:23;8.48;;;7.85;;
20381;SDS011;10350;51.280;12.400;2023-05-07T13:56:49;7.82;;;7.35;;
20381;SDS011;10350;51.280;12.400;2023-05-07T13:59:15;7.85;;;7.35;;
20381;SDS011;10350;51.280;12.400;2023-05-07T14:01:42;9.13;;;8.48;;
20381;SDS011;10350;51.280;12.400;2023-05-07T14:04:08;7.70;;;7.20;;
20381;SDS011;10350;51.280;12.400;2023-05-07T14:06:34;7.80;;;7.20;;
20381;SDS011;10350;51.280;12.400;2023-05-07T14:09:00;7.63;;;7.13;;
20381;SDS011;10350;51.280;12.400;2023-05-07T14:11:26;7.97;;;7.47;;
20381;SDS011;10350;51.280;12.400;2023-05-07T14:13:52;8.00;;;7.50;;
20381;SDS011;10350;51.280;12.400;2023-05-07T14:16:18;7.32;;;6.82;;
20381;SDS011;10350;51.280;12.400;2023-05-07T14:18:44;6.75;;;6.32;;
20381;SDS011;10350;51.280;12.400;2023-05-07T14:21:10;8.63;;;8.02;;
20381;SDS011;10350;51.280;12.400;2023-05-07T14:23:36;7.80;;;7.20;;
20381;SDS011;10350;51.280;12.400;2023-05-07T14:26:01;8.20;;;7.70;;
20381;SDS011;10350;51.280;12.400;2023-05-07T14:28:27;8.77;;;8.23;;
20381;SDS011;10350;51.280;12.400;2023-05-07T14:30:53;8.02;;;7.53;;
20381;SDS011;10350;51.280;12.400;2023-05-07T14:33:19;7.70;;;7.22;;
20381;SDS011;10350;51.280;12.400;2023-05-07T14:35:45;7.40;;;6.95;;
20381;SDS011;10350;51.280;12.400;2023-05-07T14:38:13;8.15;;;7.65;;
20381;SDS011;10350;51.280;12.400;2023-05-07T14:40:40;8.02;;;7.53;;
20381;SDS011;10350;51.280;12.400;2023-05-07T14:43:06;9.07;;;8.45;;
20381;SDS011;10350;51.280;12.400;2023-05-07T14:45:31;8.20;;;7.70;;
20381;SDS011;10350;51.280;12.400;2023-05-07T14:47:58;7.55;;;7.15;;
20381;SDS011;10350;51.280;12.400;2023-05-07T14:50:24;7.55;;;7.15;;
20381;SDS011;10350;51.280;12.400;2023-05-07T14:52:50;8.27;;;7.78;;
20381;SDS011;10350;51.280;12.400;2023-05-07T14:55:16;7.22;;;6.82;;
20381;SDS011;10350;51.280;12.400;2023-05-07T14:57:42;8.93;;;8.38;;
20381;SDS011;10350;51.280;12.400;2023-05-07T15:00:11;8.07;;;7.57;;
20381;SDS011;10350;51.280;12.400;2023-05-07T15:02:38;9.05;;;8.50;;
20381;SDS011;10350;51.280;12.400;2023-05-07T15:05:04;8.65;;;8.15;;